Time;durP1;ratioP1;P1;durP2;ratioP2;P2;SDS_P1;SDS_P2;PMS_P1;PMS_P2;Temp;Humidity;BMP_temperature;BMP_pressure;BME280_temperature;BME280_humidity;BME280_pressure;Samples;Min_cycle;Max_cycle;Signal;HPM_P1;HPM_P2
2021/11/27 00:02:25;;;;;;;22.13;12.07;;;3.20;99.90;;;;;;5108461;28;20153;-49
2021/11/27 00:04:51;;;;;;;20.40;12.10;;;3.30;99.90;;;;;;5089633;28;20028;-46
2021/11/27 00:07:16;;;;;;;24.88;11.75;;;3.30;99.90;;;;;;5089114;28;20032;-45
2021/11/27 00:09:42;;;;;;;22.10;12.43;;;3.30;99.90;;;;;;5088893;28;20074;-48
2021/11/27 00:12:08;;;;;;;21.63;12.32;;;3.30;99.90;;;;;;5087845;28;20058;-48
2021/11/27 00:14:34;;;;;;;24.35;12.57;;;3.30;99.90;;;;;;5088565;28;20466;-47
2021/11/27 00:17:01;;;;;;;24.30;13.63;;;3.30;99.90;;;;;;5088561;28;20099;-47
2021/11/27 00:19:27;;;;;;;21.80;12.25;;;3.30;99.90;;;;;;5088955;28;20016;-48
2021/11/27 00:21:52;;;;;;;23.90;12.40;;;3.30;99.90;;;;;;5087828;28;20031;-47
2021/11/27 00:24:18;;;;;;;21.30;12.68;;;3.30;99.90;;;;;;5086403;28;20058;-46
2021/11/27 00:26:44;;;;;;;19.98;12.57;;;3.30;99.90;;;;;;5092610;28;20125;-44
2021/11/27 00:29:09;;;;;;;20.45;11.52;;;3.40;99.90;;;;;;5108499;28;20019;-46
2021/11/27 00:31:38;;;;;;;26.40;13.68;;;3.40;99.90;;;;;;5108418;28;20107;-45
2021/11/27 00:34:04;;;;;;;21.33;12.07;;;3.40;99.90;;;;;;5111054;28;20030;-45
2021/11/27 00:36:30;;;;;;;25.75;12.50;;;3.40;99.90;;;;;;5112848;28;20381;-45
2021/11/27 00:38:56;;;;;;;20.63;12.90;;;3.40;99.90;;;;;;5112788;28;20020;-45
2021/11/27 00:41:22;;;;;;;22.27;12.55;;;3.40;99.90;;;;;;5110602;28;20528;-45
2021/11/27 00:43:48;;;;;;;21.27;12.15;;;3.50;99.90;;;;;;5112885;28;20165;-45
2021/11/27 00:46:14;;;;;;;21.48;11.90;;;3.50;99.90;;;;;;5112616;28;20020;-45
2021/11/27 00:48:40;;;;;;;20.33;11.80;;;3.50;99.90;;;;;;5112406;28;20020;-46
2021/11/27 00:51:17;;;;;;;20.02;11.57;;;3.50;99.90;;;;;;5110579;28;20019;-46
2021/11/27 00:53:44;;;;;;;20.15;12.20;;;3.50;99.90;;;;;;5112508;28;20058;-46
2021/11/27 00:56:10;;;;;;;21.10;11.98;;;3.50;99.90;;;;;;5103924;28;20024;-46
2021/11/27 00:58:35;;;;;;;22.38;12.77;;;3.50;99.90;;;;;;5105651;28;20020;-47
2021/11/27 01:01:05;;;;;;;20.73;11.88;;;3.50;99.90;;;;;;5110126;28;20024;-45
2021/11/27 01:03:33;;;;;;;20.27;12.07;;;3.50;99.90;;;;;;5112248;28;20107;-47
2021/11/27 01:06:02;;;;;;;21.95;12.23;;;3.50;99.90;;;;;;5111320;28;20442;-46
2021/11/27 01:08:29;;;;;;;21.40;12.40;;;3.50;99.90;;;;;;5111279;28;20054;-46
2021/11/27 01:10:59;;;;;;;22.83;11.77;;;3.60;99.90;;;;;;5111700;28;20434;-46
2021/11/27 01:13:25;;;;;;;21.40;11.52;;;3.60;99.90;;;;;;5110932;28;20036;-46
2021/11/27 01:15:52;;;;;;;20.60;12.73;;;3.50;99.90;;;;;;5112046;28;20116;-45
2021/11/27 01:18:18;;;;;;;22.60;13.18;;;3.50;99.90;;;;;;5112127;28;20038;-45
2021/11/27 01:20:52;;;;;;;21.42;11.32;;;3.50;99.90;;;;;;5111271;28;20095;-45
2021/11/27 01:23:19;;;;;;;22.48;12.30;;;3.50;99.90;;;;;;5112111;28;20389;-46
2021/11/27 01:25:45;;;;;;;21.85;11.63;;;3.60;99.90;;;;;;5105584;28;20489;-46
2021/11/27 01:28:15;;;;;;;19.52;11.82;;;3.50;99.90;;;;;;5102191;28;20059;-45
2021/11/27 01:30:46;;;;;;;21.75;12.32;;;3.50;99.90;;;;;;5111588;28;20423;-46
2021/11/27 01:33:11;;;;;;;22.15;13.65;;;3.50;99.90;;;;;;5111762;27;20028;-46
2021/11/27 01:35:37;;;;;;;24.58;12.75;;;3.50;99.90;;;;;;5111998;28;20034;-45
2021/11/27 01:38:03;;;;;;;20.25;11.35;;;3.50;99.90;;;;;;5111816;28;20106;-47
2021/11/27 01:40:29;;;;;;;20.90;11.60;;;3.60;99.90;;;;;;5109525;28;20084;-47
2021/11/27 01:42:55;;;;;;;17.65;11.05;;;3.60;99.90;;;;;;5111060;28;20043;-45
2021/11/27 01:45:22;;;;;;;20.20;10.85;;;3.50;99.90;;;;;;5110668;28;20098;-45
2021/11/27 01:48:10;;;;;;;18.98;10.75;;;3.60;99.90;;;;;;5111738;28;20047;-45
2021/11/27 01:50:42;;;;;;;19.95;10.68;;;3.60;99.90;;;;;;5110781;27;20035;-46
2021/11/27 01:53:08;;;;;;;19.83;11.65;;;3.60;99.90;;;;;;5109972;28;20185;-46
2021/11/27 01:55:34;;;;;;;19.55;11.27;;;3.60;99.90;;;;;;5105287;28;20028;-46
2021/11/27 01:58:01;;;;;;;20.48;11.52;;;3.60;99.90;;;;;;5102809;28;20024;-46
2021/11/27 02:00:32;;;;;;;21.38;11.32;;;3.60;99.90;;;;;;5110468;28;20016;-46
2021/11/27 02:02:58;;;;;;;19.38;10.73;;;3.60;99.90;;;;;;5111440;28;20023;-46
2021/11/27 02:05:24;;;;;;;19.02;10.93;;;3.50;99.90;;;;;;5111252;28;20111;-45
2021/11/27 02:07:52;;;;;;;17.63;11.32;;;3.60;99.90;;;;;;5111329;28;20058;-45
2021/11/27 02:10:18;;;;;;;24.58;12.85;;;3.60;99.90;;;;;;5108550;28;20019;-46
2021/11/27 02:12:45;;;;;;;21.58;11.85;;;3.60;99.90;;;;;;5110773;28;20016;-46
2021/11/27 02:15:12;;;;;;;21.90;12.35;;;3.50;99.90;;;;;;5103023;28;20024;-45
2021/11/27 02:17:38;;;;;;;18.27;11.95;;;3.50;99.90;;;;;;5089609;28;20028;-46
2021/11/27 02:20:06;;;;;;;21.83;12.27;;;3.40;99.90;;;;;;5090232;28;20266;-47
2021/11/27 02:22:34;;;;;;;20.05;12.38;;;3.40;99.90;;;;;;5089092;28;20024;-47
2021/11/27 02:25:02;;;;;;;18.45;11.40;;;3.40;99.90;;;;;;5090825;28;20107;-45
2021/11/27 02:27:28;;;;;;;18.35;11.38;;;3.30;99.90;;;;;;5097250;28;20032;-46
2021/11/27 02:29:54;;;;;;;23.23;12.07;;;3.30;99.90;;;;;;5110606;28;20027;-45
2021/11/27 02:32:20;;;;;;;18.85;10.65;;;3.30;99.90;;;;;;5089581;28;20059;-46
2021/11/27 02:34:46;;;;;;;22.65;12.57;;;3.30;99.90;;;;;;5090078;28;20493;-45
2021/11/27 02:37:12;;;;;;;25.40;13.00;;;3.30;99.90;;;;;;5090308;28;20115;-45
2021/11/27 02:39:37;;;;;;;21.73;11.38;;;3.30;99.90;;;;;;5090692;28;20067;-45
2021/11/27 02:42:05;;;;;;;24.17;11.63;;;3.20;99.90;;;;;;5089038;28;20047;-45
2021/11/27 02:44:33;;;;;;;22.17;11.60;;;3.20;99.90;;;;;;5088312;28;20041;-46
2021/11/27 02:46:59;;;;;;;21.23;12.88;;;3.20;99.90;;;;;;5089518;28;20501;-47
2021/11/27 02:49:27;;;;;;;22.10;12.15;;;3.10;99.90;;;;;;5089656;28;20523;-46
2021/11/27 02:51:53;;;;;;;23.88;11.98;;;3.10;99.90;;;;;;5085825;28;20354;-48
2021/11/27 02:54:19;;;;;;;24.85;14.40;;;3.10;99.90;;;;;;5089553;28;20067;-45
2021/11/27 02:56:46;;;;;;;18.08;10.63;;;3.10;99.90;;;;;;5097748;28;20025;-46
2021/11/27 02:59:14;;;;;;;25.13;12.32;;;3.10;99.90;;;;;;5109784;28;20128;-46
2021/11/27 03:01:42;;;;;;;19.63;11.23;;;3.10;99.90;;;;;;5109416;28;20024;-46
2021/11/27 03:04:08;;;;;;;22.92;12.90;;;3.10;99.90;;;;;;5110127;28;20072;-46
2021/11/27 03:06:34;;;;;;;21.08;12.05;;;3.20;99.90;;;;;;5110084;27;20160;-46
2021/11/27 03:09:03;;;;;;;22.08;12.15;;;3.20;99.90;;;;;;5109828;28;20369;-47
2021/11/27 03:11:28;;;;;;;20.73;11.60;;;3.20;99.90;;;;;;5109183;28;20496;-46
2021/11/27 03:13:55;;;;;;;18.90;11.45;;;3.20;99.90;;;;;;5108512;28;20047;-46
2021/11/27 03:16:25;;;;;;;20.52;12.02;;;3.20;99.90;;;;;;5109768;28;20465;-46
2021/11/27 03:18:51;;;;;;;19.67;10.73;;;3.20;99.90;;;;;;5109726;28;20413;-45
2021/11/27 03:21:17;;;;;;;20.77;12.07;;;3.20;99.90;;;;;;5109144;28;20110;-46
2021/11/27 03:23:43;;;;;;;18.00;11.30;;;3.20;99.90;;;;;;5109977;28;20032;-47
2021/11/27 03:26:08;;;;;;;19.88;11.55;;;3.20;99.90;;;;;;5100388;28;20509;-46
2021/11/27 03:28:34;;;;;;;22.80;13.20;;;3.30;99.90;;;;;;5104773;28;20242;-46
2021/11/27 03:30:59;;;;;;;23.77;12.82;;;3.30;99.90;;;;;;5109010;28;20015;-46
2021/11/27 03:33:25;;;;;;;25.13;13.07;;;3.20;99.90;;;;;;5109482;28;20096;-47
2021/11/27 03:35:51;;;;;;;19.67;11.77;;;3.30;99.90;;;;;;5091465;28;20035;-46
2021/11/27 03:38:16;;;;;;;22.02;12.00;;;3.30;99.90;;;;;;5089167;28;20432;-46
2021/11/27 03:40:42;;;;;;;20.20;11.40;;;3.20;99.90;;;;;;5086969;28;20496;-46
2021/11/27 03:43:08;;;;;;;24.65;13.10;;;3.20;99.90;;;;;;5087954;28;20051;-45
2021/11/27 03:45:34;;;;;;;21.20;12.50;;;3.20;99.90;;;;;;5087646;28;20024;-45
2021/11/27 03:48:04;;;;;;;25.77;11.95;;;3.30;99.90;;;;;;5088336;28;20038;-44
2021/11/27 03:50:36;;;;;;;21.98;12.02;;;3.30;99.90;;;;;;5088290;28;20032;-45
2021/11/27 03:53:02;;;;;;;21.73;12.82;;;3.20;99.90;;;;;;5088984;28;20028;-45
2021/11/27 03:55:28;;;;;;;24.35;13.27;;;3.20;99.90;;;;;;5090023;28;20022;-45
2021/11/27 03:57:53;;;;;;;20.52;12.70;;;3.20;99.90;;;;;;5101141;28;20024;-46
2021/11/27 04:00:19;;;;;;;23.42;14.23;;;3.20;99.90;;;;;;5108508;28;20099;-45
2021/11/27 04:02:45;;;;;;;25.17;14.13;;;3.20;99.90;;;;;;5108954;28;20393;-45
2021/11/27 04:05:12;;;;;;;24.70;13.82;;;3.20;99.90;;;;;;5109297;28;20381;-45
2021/11/27 04:07:37;;;;;;;28.80;14.70;;;3.20;99.90;;;;;;5107293;28;20028;-48
2021/11/27 04:10:04;;;;;;;22.35;14.02;;;3.20;99.90;;;;;;5108833;28;20031;-45
2021/11/27 04:12:29;;;;;;;25.83;15.43;;;3.10;99.90;;;;;;5108645;28;20028;-45
2021/11/27 04:14:55;;;;;;;28.23;14.57;;;3.10;99.90;;;;;;5107521;28;20358;-46
2021/11/27 04:17:20;;;;;;;22.80;13.88;;;3.10;99.90;;;;;;5109054;28;20035;-45
2021/11/27 04:19:46;;;;;;;23.92;13.35;;;3.10;99.90;;;;;;5109114;28;20026;-45
2021/11/27 04:22:12;;;;;;;24.55;13.90;;;3.10;99.90;;;;;;5108206;28;20027;-46
2021/11/27 04:24:39;;;;;;;24.88;14.13;;;3.10;99.90;;;;;;5106357;28;20136;-46
2021/11/27 04:27:05;;;;;;;25.35;15.38;;;3.10;99.90;;;;;;5098944;28;20021;-45
2021/11/27 04:29:31;;;;;;;25.45;14.90;;;3.10;99.90;;;;;;5098620;28;20026;-46
2021/11/27 04:31:57;;;;;;;26.65;15.00;;;3.10;99.90;;;;;;5087676;28;20103;-47
2021/11/27 04:34:23;;;;;;;29.42;15.10;;;3.10;99.90;;;;;;5088353;28;20031;-49
2021/11/27 04:36:48;;;;;;;31.70;15.73;;;3.10;99.90;;;;;;5088331;28;20025;-46
2021/11/27 04:39:14;;;;;;;24.75;13.77;;;3.10;99.90;;;;;;5088309;28;20016;-45
2021/11/27 04:41:40;;;;;;;30.05;15.43;;;3.00;99.90;;;;;;5087784;28;20077;-46
2021/11/27 04:44:05;;;;;;;32.70;15.57;;;3.00;99.90;;;;;;5088142;28;20040;-46
2021/11/27 04:46:31;;;;;;;29.42;15.52;;;3.00;99.90;;;;;;5088215;28;20039;-45
2021/11/27 04:48:57;;;;;;;26.15;14.88;;;3.00;99.90;;;;;;5088487;28;20111;-45
2021/11/27 04:51:23;;;;;;;22.38;14.40;;;2.90;99.90;;;;;;5087794;28;20115;-45
2021/11/27 04:53:48;;;;;;;26.75;14.60;;;3.00;99.90;;;;;;5088172;28;20111;-47
2021/11/27 04:56:14;;;;;;;26.00;15.10;;;3.00;99.90;;;;;;5092438;28;20305;-46
2021/11/27 04:58:40;;;;;;;26.98;14.65;;;3.00;99.90;;;;;;5103776;28;20051;-46
2021/11/27 05:01:06;;;;;;;24.48;14.38;;;3.00;99.90;;;;;;5107938;28;20020;-48
2021/11/27 05:03:32;;;;;;;23.98;14.00;;;3.00;99.90;;;;;;5108867;28;20027;-45
2021/11/27 05:05:58;;;;;;;29.38;15.15;;;3.00;99.90;;;;;;5108416;28;20020;-49
2021/11/27 05:08:24;;;;;;;25.30;14.88;;;3.00;99.90;;;;;;5108625;28;20111;-46
2021/11/27 05:10:50;;;;;;;28.27;14.18;;;3.00;99.90;;;;;;5107585;28;20478;-45
2021/11/27 05:13:15;;;;;;;29.58;15.88;;;3.00;99.90;;;;;;5108647;28;20019;-46
2021/11/27 05:15:41;;;;;;;26.38;14.82;;;3.00;99.90;;;;;;5107005;28;20110;-45
2021/11/27 05:18:07;;;;;;;23.67;13.82;;;3.10;99.90;;;;;;5108540;28;20084;-46
2021/11/27 05:20:33;;;;;;;23.77;13.32;;;3.10;99.90;;;;;;5109030;28;20023;-47
2021/11/27 05:22:58;;;;;;;24.92;13.63;;;3.10;99.90;;;;;;5111825;28;20024;-46
2021/11/27 05:25:24;;;;;;;27.42;14.48;;;3.10;99.90;;;;;;5107841;28;20168;-45
2021/11/27 05:27:50;;;;;;;28.15;14.05;;;3.10;99.90;;;;;;5101858;28;20077;-47
2021/11/27 05:30:15;;;;;;;30.77;15.55;;;3.20;99.90;;;;;;5111400;28;20027;-45
2021/11/27 05:33:07;;;;;;;23.38;13.18;;;3.10;99.90;;;;;;5111872;28;20027;-44
2021/11/27 05:35:33;;;;;;;26.65;13.70;;;3.20;99.90;;;;;;5093078;27;20024;-45
2021/11/27 05:38:00;;;;;;;28.05;14.10;;;3.20;99.90;;;;;;5091558;28;20028;-46
2021/11/27 05:40:26;;;;;;;31.92;15.23;;;3.20;99.90;;;;;;5090165;28;20103;-46
2021/11/27 05:42:52;;;;;;;27.15;14.48;;;3.20;99.90;;;;;;5090579;28;20111;-45
2021/11/27 05:45:19;;;;;;;30.00;15.43;;;3.20;99.90;;;;;;5091173;28;20039;-45
2021/11/27 05:47:45;;;;;;;21.50;12.65;;;3.20;99.90;;;;;;5093298;28;20020;-45
2021/11/27 05:50:11;;;;;;;23.25;12.40;;;3.20;99.90;;;;;;5090558;28;20028;-45
2021/11/27 05:52:37;;;;;;;23.33;12.85;;;3.30;99.90;;;;;;5090425;28;20031;-44
2021/11/27 05:55:04;;;;;;;27.75;14.05;;;3.30;99.90;;;;;;5088122;28;20040;-46
2021/11/27 05:57:30;;;;;;;22.48;12.20;;;3.30;99.90;;;;;;5102818;28;20019;-45
2021/11/27 05:59:56;;;;;;;25.02;13.30;;;3.30;99.90;;;;;;5110118;28;20076;-46
2021/11/27 06:02:21;;;;;;;25.75;11.45;;;3.40;99.90;;;;;;5089885;28;20539;-44
2021/11/27 06:04:49;;;;;;;23.05;12.35;;;3.40;99.90;;;;;;5090890;28;20247;-47
2021/11/27 06:07:15;;;;;;;22.13;13.05;;;3.40;99.90;;;;;;5088682;28;20027;-46
2021/11/27 06:09:40;;;;;;;22.15;12.55;;;3.40;99.90;;;;;;5090684;28;20036;-47
2021/11/27 06:12:06;;;;;;;22.30;13.43;;;3.40;99.90;;;;;;5088268;28;20028;-47
2021/11/27 06:14:34;;;;;;;24.65;12.57;;;3.40;99.90;;;;;;5090887;28;20071;-45
2021/11/27 06:17:00;;;;;;;27.40;13.00;;;3.50;99.90;;;;;;5090565;28;20020;-45
2021/11/27 06:19:25;;;;;;;25.05;13.07;;;3.50;99.90;;;;;;5090596;28;20024;-46
2021/11/27 06:21:51;;;;;;;20.65;11.60;;;3.50;99.90;;;;;;5089642;28;20031;-47
2021/11/27 06:24:16;;;;;;;21.33;11.75;;;3.50;99.90;;;;;;5090363;28;20036;-46
2021/11/27 06:26:42;;;;;;;30.48;12.63;;;3.50;99.90;;;;;;5098368;28;20023;-47
2021/11/27 06:29:08;;;;;;;19.77;12.15;;;3.50;99.90;;;;;;5090915;28;20052;-47
2021/11/27 06:31:33;;;;;;;21.88;10.95;;;3.50;99.90;;;;;;5089139;28;20036;-47
2021/11/27 06:33:59;;;;;;;23.85;10.93;;;3.50;99.90;;;;;;5089121;28;20017;-48
2021/11/27 06:36:26;;;;;;;23.05;12.25;;;3.50;99.90;;;;;;5090068;28;20433;-46
2021/11/27 06:38:52;;;;;;;20.95;12.40;;;3.50;99.90;;;;;;5090009;28;20028;-46
2021/11/27 06:41:18;;;;;;;22.20;12.18;;;3.50;99.90;;;;;;5089235;28;20138;-46
2021/11/27 06:43:44;;;;;;;22.10;12.23;;;3.50;99.90;;;;;;5089589;28;20055;-49
2021/11/27 06:46:10;;;;;;;22.02;12.02;;;3.50;99.90;;;;;;5090150;28;20020;-46
2021/11/27 06:48:35;;;;;;;19.88;11.15;;;3.50;99.90;;;;;;5089936;28;20583;-46
2021/11/27 06:51:01;;;;;;;21.67;11.60;;;3.50;99.90;;;;;;5089316;28;20035;-49
2021/11/27 06:53:26;;;;;;;24.27;11.93;;;3.50;99.90;;;;;;5089896;28;20028;-47
2021/11/27 06:55:52;;;;;;;21.60;10.88;;;3.50;99.90;;;;;;5096107;28;20505;-45
2021/11/27 06:58:18;;;;;;;23.55;11.57;;;3.50;99.90;;;;;;5102506;28;20504;-46
2021/11/27 07:00:44;;;;;;;24.98;12.13;;;3.50;99.90;;;;;;5109730;28;20024;-46
2021/11/27 07:03:09;;;;;;;19.50;11.07;;;3.50;99.90;;;;;;5110771;28;20035;-46
2021/11/27 07:05:35;;;;;;;21.27;11.30;;;3.50;99.90;;;;;;5108727;28;20028;-45
2021/11/27 07:08:00;;;;;;;17.98;10.68;;;3.50;99.90;;;;;;5110010;28;20653;-46
2021/11/27 07:10:27;;;;;;;25.55;11.98;;;3.50;99.90;;;;;;5109312;28;20023;-45
2021/11/27 07:12:53;;;;;;;23.67;11.85;;;3.50;99.90;;;;;;5097447;28;20482;-45
2021/11/27 07:15:18;;;;;;;20.45;11.73;;;3.60;99.90;;;;;;5087562;28;20036;-46
2021/11/27 07:17:44;;;;;;;19.85;11.07;;;3.50;99.90;;;;;;5089148;28;20320;-47
2021/11/27 07:20:11;;;;;;;21.42;11.27;;;3.50;99.90;;;;;;5088896;28;20077;-48
2021/11/27 07:22:37;;;;;;;22.13;12.30;;;3.60;99.90;;;;;;5088657;28;20481;-47
2021/11/27 07:25:04;;;;;;;21.58;11.48;;;3.60;99.90;;;;;;5088464;28;20036;-48
2021/11/27 07:27:29;;;;;;;21.95;11.95;;;3.60;99.90;;;;;;5099128;28;20032;-45
2021/11/27 07:29:55;;;;;;;21.60;11.35;;;3.60;99.90;;;;;;5109112;28;20043;-46
2021/11/27 07:32:21;;;;;;;23.85;12.55;;;3.60;99.90;;;;;;5108596;28;20024;-49
2021/11/27 07:34:47;;;;;;;26.92;12.77;;;3.60;99.90;;;;;;5109135;28;20027;-46
2021/11/27 07:37:13;;;;;;;27.58;15.23;;;3.60;99.90;;;;;;5109317;28;20097;-46
2021/11/27 07:39:38;;;;;;;27.98;14.20;;;3.60;99.90;;;;;;5109648;28;20347;-47
2021/11/27 07:42:06;;;;;;;26.38;14.18;;;3.60;99.90;;;;;;5106327;28;20536;-48
2021/11/27 07:44:31;;;;;;;24.52;13.77;;;3.60;99.90;;;;;;5109458;28;20412;-48
2021/11/27 07:46:57;;;;;;;26.50;14.57;;;3.50;99.90;;;;;;5109354;28;20019;-49
2021/11/27 07:49:24;;;;;;;26.77;14.25;;;3.50;99.90;;;;;;5109368;28;20153;-49
2021/11/27 07:51:50;;;;;;;27.77;16.20;;;3.50;99.90;;;;;;5108613;28;20024;-46
2021/11/27 07:54:17;;;;;;;28.63;15.07;;;3.50;99.90;;;;;;5109207;28;20020;-46
2021/11/27 07:56:43;;;;;;;30.35;15.65;;;3.50;99.90;;;;;;5100738;28;20111;-47
2021/11/27 07:59:08;;;;;;;27.00;15.15;;;3.50;99.90;;;;;;5108927;28;20103;-46
2021/11/27 08:01:34;;;;;;;29.73;16.25;;;3.50;99.90;;;;;;5108470;28;20031;-47
2021/11/27 08:04:01;;;;;;;33.58;16.45;;;3.50;99.90;;;;;;5108850;28;20023;-46
2021/11/27 08:06:26;;;;;;;30.80;15.23;;;3.60;99.90;;;;;;5109210;28;20101;-46
2021/11/27 08:08:52;;;;;;;31.77;16.30;;;3.60;99.90;;;;;;5109001;28;20493;-47
2021/11/27 08:11:20;;;;;;;24.02;14.75;;;3.60;99.90;;;;;;5108334;28;20103;-49
2021/11/27 08:13:46;;;;;;;26.38;14.48;;;3.60;99.90;;;;;;5108829;28;20016;-47
2021/11/27 08:16:12;;;;;;;30.65;16.02;;;3.70;99.90;;;;;;5108949;28;20015;-46
2021/11/27 08:18:37;;;;;;;27.80;15.18;;;3.70;99.90;;;;;;5107435;28;20020;-46
2021/11/27 08:21:04;;;;;;;26.10;13.77;;;3.60;99.90;;;;;;5108241;28;20035;-46
2021/11/27 08:23:29;;;;;;;29.67;15.15;;;3.60;99.90;;;;;;5108817;28;20059;-49
2021/11/27 08:25:55;;;;;;;26.35;15.38;;;3.60;99.90;;;;;;5106106;28;20024;-47
2021/11/27 08:28:21;;;;;;;26.75;15.80;;;3.60;99.90;;;;;;5100048;28;20459;-46
2021/11/27 08:30:46;;;;;;;28.85;15.23;;;3.70;99.90;;;;;;5106881;28;20512;-46
2021/11/27 08:33:12;;;;;;;29.45;15.30;;;3.80;99.90;;;;;;5108700;28;20042;-45
2021/11/27 08:35:38;;;;;;;32.30;14.95;;;3.80;99.90;;;;;;5108947;28;20027;-49
2021/11/27 08:38:03;;;;;;;28.05;14.07;;;3.80;99.90;;;;;;5108857;28;20089;-49
2021/11/27 08:40:29;;;;;;;25.27;13.80;;;3.80;99.90;;;;;;5106792;28;20524;-46
2021/11/27 08:42:56;;;;;;;23.92;13.50;;;3.80;99.90;;;;;;5108647;28;20515;-46
2021/11/27 08:45:22;;;;;;;28.20;15.10;;;3.80;99.90;;;;;;5108805;28;20103;-48
2021/11/27 08:47:47;;;;;;;24.35;12.80;;;3.90;99.90;;;;;;5108657;28;20108;-45
2021/11/27 08:50:13;;;;;;;21.90;12.23;;;3.90;99.90;;;;;;5108202;28;20381;-48
2021/11/27 08:52:39;;;;;;;24.00;13.65;;;3.90;99.90;;;;;;5108787;28;20034;-47
2021/11/27 08:55:06;;;;;;;22.52;13.13;;;4.00;99.90;;;;;;5111652;28;20046;-48
2021/11/27 08:57:33;;;;;;;24.80;13.10;;;4.00;99.90;;;;;;5103741;28;20084;-47
2021/11/27 08:59:59;;;;;;;27.17;13.95;;;4.10;99.90;;;;;;5112568;28;20031;-46
2021/11/27 09:02:25;;;;;;;28.80;14.18;;;4.10;99.90;;;;;;5111818;28;20125;-46
2021/11/27 09:04:51;;;;;;;22.35;12.65;;;4.10;99.90;;;;;;5112425;28;20031;-46
2021/11/27 09:07:17;;;;;;;27.40;15.02;;;4.10;99.90;;;;;;5112438;28;20027;-46
2021/11/27 09:09:45;;;;;;;23.85;13.65;;;4.10;99.90;;;;;;5112253;28;20034;-45
2021/11/27 09:12:13;;;;;;;27.50;15.00;;;4.10;99.90;;;;;;5111290;28;20083;-47
2021/11/27 09:14:39;;;;;;;27.80;15.23;;;4.20;99.90;;;;;;5112210;28;20065;-46
2021/11/27 09:17:05;;;;;;;29.60;14.88;;;4.20;99.90;;;;;;5112027;28;20016;-46
2021/11/27 09:19:31;;;;;;;22.75;12.85;;;4.30;99.90;;;;;;5112509;28;20476;-47
2021/11/27 09:21:56;;;;;;;27.80;14.43;;;4.30;99.90;;;;;;5111850;28;20080;-46
2021/11/27 09:24:22;;;;;;;21.80;12.57;;;4.30;99.90;;;;;;5112155;28;20463;-47
2021/11/27 09:26:48;;;;;;;24.77;13.60;;;4.30;99.90;;;;;;5102111;28;20070;-46
2021/11/27 09:29:17;;;;;;;25.00;12.65;;;4.40;99.90;;;;;;5091410;28;20028;-47
2021/11/27 09:31:43;;;;;;;21.67;12.65;;;4.40;99.90;;;;;;5090603;28;20089;-46
2021/11/27 09:34:11;;;;;;;18.75;11.85;;;4.40;99.90;;;;;;5091156;28;20028;-47
2021/11/27 09:36:39;;;;;;;21.92;12.20;;;4.50;99.90;;;;;;5091545;28;20148;-48
2021/11/27 09:39:09;;;;;;;19.40;10.73;;;4.40;99.90;;;;;;5091261;28;20488;-49
2021/11/27 09:41:37;;;;;;;20.13;11.88;;;4.50;99.90;;;;;;5090409;28;20382;-46
2021/11/27 09:44:05;;;;;;;21.60;11.02;;;4.50;99.90;;;;;;5091494;28;20540;-46
2021/11/27 09:46:33;;;;;;;20.42;11.48;;;4.70;99.90;;;;;;5091245;28;20273;-46
2021/11/27 09:49:02;;;;;;;22.58;11.63;;;4.70;99.90;;;;;;5089690;28;20050;-48
2021/11/27 09:51:30;;;;;;;18.00;10.77;;;4.90;99.90;;;;;;5090632;28;20024;-47
2021/11/27 09:53:58;;;;;;;19.35;10.85;;;5.10;99.90;;;;;;5091230;28;20020;-46
2021/11/27 09:56:25;;;;;;;16.90;10.20;;;5.30;99.90;;;;;;5087394;28;20464;-47
2021/11/27 09:58:51;;;;;;;21.48;10.88;;;5.30;99.90;;;;;;5102958;28;20024;-47
2021/11/27 10:01:19;;;;;;;16.08;10.82;;;5.30;99.90;;;;;;5109581;28;20396;-46
2021/11/27 10:03:59;;;;;;;20.10;11.50;;;5.30;99.90;;;;;;5111336;28;20105;-46
2021/11/27 10:06:26;;;;;;;17.33;10.40;;;5.30;99.90;;;;;;5109099;28;20054;-46
2021/11/27 10:08:52;;;;;;;19.13;10.93;;;5.30;99.90;;;;;;5109834;28;20469;-46
2021/11/27 10:11:18;;;;;;;16.38;9.93;;;5.20;99.90;;;;;;5109939;28;20083;-48
2021/11/27 10:13:43;;;;;;;18.02;9.77;;;5.20;99.90;;;;;;5109547;28;20397;-48
2021/11/27 10:16:09;;;;;;;16.75;10.32;;;5.30;99.90;;;;;;5109673;28;20081;-47
2021/11/27 10:18:35;;;;;;;16.85;9.70;;;5.30;99.90;;;;;;5111210;28;20023;-45
2021/11/27 10:21:12;;;;;;;19.40;10.13;;;5.40;99.90;;;;;;5108824;28;20074;-47
2021/11/27 10:23:39;;;;;;;17.02;10.00;;;5.40;99.90;;;;;;5110759;28;20031;-47
2021/11/27 10:26:05;;;;;;;20.10;10.75;;;5.40;99.90;;;;;;5101663;28;20055;-48
2021/11/27 10:28:31;;;;;;;17.95;10.50;;;5.50;99.90;;;;;;5101849;28;20512;-47
2021/11/27 10:31:05;;;;;;;16.50;10.00;;;5.50;99.90;;;;;;5110012;28;20023;-48
2021/11/27 10:33:36;;;;;;;18.58;9.73;;;5.60;99.90;;;;;;5109282;28;20106;-47
2021/11/27 10:36:10;;;;;;;17.10;9.98;;;5.70;99.90;;;;;;5110571;28;20046;-48
2021/11/27 10:38:39;;;;;;;12.98;8.27;;;5.70;99.90;;;;;;5110790;28;20042;-48
2021/11/27 10:41:05;;;;;;;13.82;9.32;;;5.80;99.90;;;;;;5108643;28;20031;-46
2021/11/27 10:43:33;;;;;;;17.02;10.05;;;5.80;99.90;;;;;;5110594;27;20035;-47
2021/11/27 10:45:58;;;;;;;16.27;9.52;;;5.90;99.90;;;;;;5110391;28;20072;-47
2021/11/27 10:48:24;;;;;;;22.83;9.52;;;5.90;99.90;;;;;;5110705;28;20103;-49
2021/11/27 10:51:01;;;;;;;15.50;9.07;;;5.90;99.90;;;;;;5109625;28;20019;-47
2021/11/27 10:53:35;;;;;;;14.77;9.02;;;5.80;99.90;;;;;;5110313;28;20027;-48
2021/11/27 10:56:09;;;;;;;13.50;8.75;;;5.80;99.90;;;;;;5102033;28;20027;-47
2021/11/27 10:59:03;;;;;;;18.45;10.48;;;5.70;99.90;;;;;;5101341;27;20050;-47
2021/11/27 11:01:29;;;;;;;15.32;9.18;;;5.70;99.90;;;;;;5109632;28;20019;-46
2021/11/27 11:03:55;;;;;;;16.10;9.35;;;5.60;99.90;;;;;;5110059;28;20493;-48
2021/11/27 11:06:25;;;;;;;16.65;9.07;;;5.70;99.90;;;;;;5108576;28;20032;-47
2021/11/27 11:08:52;;;;;;;15.38;8.55;;;5.60;99.90;;;;;;5110027;28;20516;-48
2021/11/27 11:11:20;;;;;;;16.73;9.27;;;5.50;99.90;;;;;;5108892;28;20231;-49
2021/11/27 11:13:52;;;;;;;16.45;9.50;;;5.50;99.90;;;;;;5109681;28;20368;-47
2021/11/27 11:16:19;;;;;;;20.95;9.65;;;5.30;99.90;;;;;;5108497;28;20024;-47
2021/11/27 11:18:48;;;;;;;17.75;9.65;;;5.20;99.90;;;;;;5109971;28;20023;-47
2021/11/27 11:21:14;;;;;;;15.13;9.27;;;5.20;99.90;;;;;;5109139;28;20165;-49
2021/11/27 11:23:43;;;;;;;18.27;9.77;;;5.20;99.90;;;;;;5109739;28;20102;-47
2021/11/27 11:26:10;;;;;;;15.57;10.07;;;5.20;99.90;;;;;;5100751;28;20481;-49
2021/11/27 11:28:41;;;;;;;14.25;9.15;;;5.00;99.90;;;;;;5100986;28;20400;-48
2021/11/27 11:31:14;;;;;;;15.77;9.27;;;5.10;99.90;;;;;;5107736;28;20165;-47
2021/11/27 11:33:45;;;;;;;15.57;9.90;;;5.10;99.90;;;;;;5109546;28;20054;-47
2021/11/27 11:36:12;;;;;;;16.67;8.85;;;5.10;99.90;;;;;;5109566;28;20094;-46
2021/11/27 11:38:40;;;;;;;20.02;9.35;;;5.10;99.90;;;;;;5109364;28;20465;-47
2021/11/27 11:41:06;;;;;;;12.93;9.25;;;5.20;99.90;;;;;;5108937;28;20023;-48
2021/11/27 11:43:32;;;;;;;16.67;10.05;;;5.20;99.90;;;;;;5108843;28;20038;-46
2021/11/27 11:45:57;;;;;;;21.67;10.50;;;5.20;99.90;;;;;;5109807;28;20028;-51
2021/11/27 11:48:28;;;;;;;17.35;9.00;;;5.10;99.90;;;;;;5109312;28;20508;-47
2021/11/27 11:51:26;;;;;;;16.33;10.48;;;5.20;99.90;;;;;;5108818;28;20028;-47
2021/11/27 11:53:57;;;;;;;20.40;10.57;;;5.20;99.90;;;;;;5109332;28;20035;-47
2021/11/27 11:56:31;;;;;;;16.15;9.93;;;5.20;99.90;;;;;;5101762;28;20034;-48
2021/11/27 11:59:25;;;;;;;15.55;9.50;;;5.20;99.90;;;;;;5099578;28;20028;-47
2021/11/27 12:02:10;;;;;;;15.73;9.50;;;5.20;99.90;;;;;;5108863;28;20122;-47
2021/11/27 12:04:35;;;;;;;16.67;9.70;;;5.30;99.90;;;;;;5109598;28;20024;-47
2021/11/27 12:07:09;;;;;;;18.15;10.48;;;5.30;99.90;;;;;;5108153;28;20020;-48
2021/11/27 12:09:35;;;;;;;16.08;9.73;;;5.20;99.90;;;;;;5109248;28;20020;-48
2021/11/27 12:12:02;;;;;;;16.70;10.13;;;5.10;99.90;;;;;;5108012;28;20028;-47
2021/11/27 12:14:29;;;;;;;15.75;9.48;;;5.10;99.90;;;;;;5109177;28;20020;-47
2021/11/27 12:17:16;;;;;;;16.48;10.38;;;5.10;99.90;;;;;;5109128;28;20019;-47
2021/11/27 12:19:52;;;;;;;17.23;11.05;;;5.10;99.90;;;;;;5107805;28;20016;-47
2021/11/27 12:22:24;;;;;;;15.93;10.98;;;5.20;99.90;;;;;;5107190;28;20030;-47
2021/11/27 12:25:11;;;;;;;14.98;10.20;;;5.20;99.90;;;;;;5109088;28;20504;-49
2021/11/27 12:28:07;;;;;;;15.75;10.13;;;5.20;99.90;;;;;;5091556;28;20032;-48
2021/11/27 12:30:44;;;;;;;16.77;9.75;;;5.10;99.90;;;;;;5070392;28;20407;-47
2021/11/27 12:33:44;;;;;;;19.95;10.27;;;5.10;99.90;;;;;;5072523;28;20035;-47
2021/11/27 12:36:41;;;;;;;17.13;9.50;;;5.20;99.90;;;;;;5072650;28;20023;-47
2021/11/27 12:39:16;;;;;;;18.08;10.05;;;5.10;99.90;;;;;;5069285;28;20110;-47
2021/11/27 12:41:42;;;;;;;17.70;9.82;;;5.10;99.90;;;;;;5071549;28;20021;-48